Time;durP1;ratioP1;P1;durP2;ratioP2;P2;SDS_P1;SDS_P2;PMS_P1;PMS_P2;Temp;Humidity;BMP_temperature;BMP_pressure;BME280_temperature;BME280_humidity;BME280_pressure;Samples;Min_cycle;Max_cycle;Signal;HPM_P1;HPM_P2
2020/12/05 00:01:56;;;;;;;34.40;24.47;;;;;;;0.41;83.96;98106.85;1805684;79;20979;-83
2020/12/05 00:04:23;;;;;;;36.90;24.82;;;;;;;0.40;84.01;98106.91;1805820;79;20956;-84
2020/12/05 00:06:51;;;;;;;35.68;25.45;;;;;;;0.40;84.17;98109.55;1814200;79;21763;-82
2020/12/05 00:09:18;;;;;;;32.35;23.52;;;;;;;0.39;84.26;98100.73;1814823;79;20916;-82
2020/12/05 00:11:47;;;;;;;32.35;24.18;;;;;;;0.40;84.34;98105.58;1814803;79;21003;-84
2020/12/05 00:14:15;;;;;;;36.98;27.13;;;;;;;0.41;84.35;98115.22;1814788;79;20983;-83
2020/12/05 00:16:42;;;;;;;35.92;24.75;;;;;;;0.38;84.37;98104.74;1814969;79;20904;-83
2020/12/05 00:19:11;;;;;;;36.35;24.32;;;;;;;0.38;84.56;98110.92;1814903;79;21800;-83
2020/12/05 00:21:38;;;;;;;32.42;24.23;;;;;;;0.39;84.74;98110.45;1814762;79;20916;-83
2020/12/05 00:24:06;;;;;;;35.43;24.57;;;;;;;0.40;84.84;98110.39;1814920;79;21541;-83
2020/12/05 00:26:34;;;;;;;33.78;25.32;;;;;;;0.40;85.00;98110.39;1814748;79;21584;-84
2020/12/05 00:29:02;;;;;;;31.35;23.12;;;;;;;0.41;85.20;98113.45;1814872;79;20908;-83
2020/12/05 00:31:29;;;;;;;33.05;23.47;;;;;;;0.44;85.22;98105.86;1814943;79;22287;-83
2020/12/05 00:33:58;;;;;;;33.75;24.90;;;;;;;0.46;85.19;98113.31;1814861;78;20920;-81
2020/12/05 00:36:25;;;;;;;36.88;25.88;;;;;;;0.46;85.22;98111.98;1814802;79;20979;-82
2020/12/05 00:38:54;;;;;;;35.20;25.72;;;;;;;0.47;85.31;98108.41;1814794;79;20967;-82
2020/12/05 00:41:22;;;;;;;35.92;25.80;;;;;;;0.49;85.37;98114.50;1814798;79;21023;-82
2020/12/05 00:43:50;;;;;;;36.55;24.87;;;;;;;0.50;85.31;98112.27;1814850;79;21808;-82
2020/12/05 00:46:17;;;;;;;33.42;23.98;;;;;;;0.52;85.27;98114.39;1814766;79;20999;-81
2020/12/05 00:48:45;;;;;;;35.78;26.82;;;;;;;0.55;85.23;98107.69;1814855;79;20987;-81
2020/12/05 00:51:13;;;;;;;36.38;24.35;;;;;;;0.53;85.08;98110.84;1814737;79;20995;-83
2020/12/05 00:53:42;;;;;;;34.95;26.17;;;;;;;0.54;85.11;98118.73;1814903;79;20901;-82
2020/12/05 00:56:11;;;;;;;36.93;24.77;;;;;;;0.55;85.14;98123.55;1814844;79;22267;-82
2020/12/05 00:58:38;;;;;;;36.55;25.43;;;;;;;0.57;85.17;98128.78;1783526;79;21473;-83
2020/12/05 01:01:07;;;;;;;32.58;24.63;;;;;;;0.57;85.12;98126.14;1814418;79;33455;-83
2020/12/05 01:03:34;;;;;;;38.53;25.30;;;;;;;0.56;85.00;98119.14;1814865;79;20996;-82
2020/12/05 01:06:03;;;;;;;32.40;24.82;;;;;;;0.54;84.81;98118.73;1821356;78;21018;-83
2020/12/05 01:08:30;;;;;;;33.28;24.10;;;;;;;0.54;84.79;98123.16;1828643;78;21194;-83
2020/12/05 01:11:00;;;;;;;33.13;25.23;;;;;;;0.51;84.80;98118.83;1828529;78;20947;-83
2020/12/05 01:13:28;;;;;;;35.83;26.40;;;;;;;0.50;84.80;98118.87;1828712;78;20876;-82
2020/12/05 01:15:57;;;;;;;33.70;26.25;;;;;;;0.48;84.87;98129.50;1828711;78;21556;-82
2020/12/05 01:18:24;;;;;;;31.70;24.25;;;;;;;0.47;84.93;98125.58;1828718;78;21519;-82
2020/12/05 01:20:54;;;;;;;33.88;25.30;;;;;;;0.47;84.96;98128.23;1828631;78;21359;-82
2020/12/05 01:23:21;;;;;;;30.97;23.40;;;;;;;0.44;84.91;98118.64;1828596;78;20928;-82
2020/12/05 01:25:50;;;;;;;34.48;24.43;;;;;;;0.44;84.94;98122.61;1828757;78;21473;-82
2020/12/05 01:28:17;;;;;;;34.70;24.80;;;;;;;0.42;85.03;98128.84;1828615;78;20990;-82
2020/12/05 01:30:45;;;;;;;34.75;25.48;;;;;;;0.41;85.37;98127.10;1828640;78;20927;-82
2020/12/05 01:33:12;;;;;;;32.93;23.50;;;;;;;0.41;85.59;98121.81;1828684;78;21634;-81
2020/12/05 01:35:40;;;;;;;31.57;22.50;;;;;;;0.42;85.72;98118.27;1828613;78;20884;-81
2020/12/05 01:38:09;;;;;;;28.60;21.10;;;;;;;0.43;85.69;98115.58;1828597;78;20868;-81
2020/12/05 01:40:38;;;;;;;35.92;24.75;;;;;;;0.43;85.61;98116.05;1828660;78;21318;-81
2020/12/05 01:43:05;;;;;;;38.92;26.95;;;;;;;0.43;85.62;98120.02;1828776;78;20960;-81
2020/12/05 01:45:32;;;;;;;33.88;22.45;;;;;;;0.42;85.67;98122.23;1828684;78;21865;-81
2020/12/05 01:48:00;;;;;;;28.85;21.02;;;;;;;0.42;85.76;98123.56;1828636;78;20915;-80
2020/12/05 01:50:27;;;;;;;34.40;23.67;;;;;;;0.42;85.78;98115.63;1828553;78;20907;-81
2020/12/05 01:52:56;;;;;;;33.90;23.40;;;;;;;0.41;85.97;98122.70;1827608;78;20939;-82
2020/12/05 01:55:24;;;;;;;30.35;22.75;;;;;;;0.42;86.11;98120.91;1828663;78;20991;-82
2020/12/05 01:57:52;;;;;;;28.00;20.70;;;;;;;0.42;86.12;98119.59;1828704;78;21801;-81
2020/12/05 02:00:19;;;;;;;27.22;22.05;;;;;;;0.44;86.04;98129.65;1828613;78;20924;-81
2020/12/05 02:02:46;;;;;;;26.77;21.33;;;;;;;0.43;86.05;98130.58;1828761;78;20986;-82
2020/12/05 02:05:56;;;;;;;34.70;25.27;;;;;;;0.43;86.10;98135.40;1828770;78;20955;-82
2020/12/05 02:08:56;;;;;;;32.17;23.18;;;;;;;0.45;86.33;98136.20;1828582;78;20987;-81
2020/12/05 02:11:29;;;;;;;33.53;23.00;;;;;;;0.48;86.44;98133.93;1828819;78;21366;-82
2020/12/05 02:14:01;;;;;;;29.63;23.42;;;;;;;0.51;86.31;98135.15;1828686;78;21365;-80
2020/12/05 02:16:29;;;;;;;33.63;25.17;;;;;;;0.52;86.13;98135.54;1828863;78;21330;-82
2020/12/05 02:18:57;;;;;;;33.30;26.50;;;;;;;0.53;86.09;98138.59;1828788;78;20994;-82
2020/12/05 02:21:28;;;;;;;35.10;23.85;;;;;;;0.51;86.22;98130.72;1828719;78;20931;-83
2020/12/05 02:23:57;;;;;;;34.88;25.37;;;;;;;0.52;86.26;98127.61;1828798;78;22250;-82
2020/12/05 02:26:26;;;;;;;37.45;27.90;;;;;;;0.55;86.15;98126.19;1828795;78;21413;-81
2020/12/05 02:28:55;;;;;;;33.50;23.15;;;;;;;0.56;86.13;98131.89;1828825;78;20994;-82
2020/12/05 02:31:24;;;;;;;34.60;25.77;;;;;;;0.56;86.17;98128.39;1828746;78;20991;-82
2020/12/05 02:33:52;;;;;;;34.00;25.15;;;;;;;0.55;85.94;98127.51;1828819;78;20919;-81
2020/12/05 02:36:20;;;;;;;31.50;24.52;;;;;;;0.54;85.93;98139.87;1828754;78;21792;-81
2020/12/05 02:39:00;;;;;;;30.95;23.00;;;;;;;0.54;85.81;98134.58;1828809;78;21035;-81
2020/12/05 02:41:28;;;;;;;32.42;24.25;;;;;;;0.50;85.67;98117.55;1828773;78;20911;-80
2020/12/05 02:44:00;;;;;;;34.67;25.27;;;;;;;0.49;85.58;98122.42;1828752;78;21515;-81
2020/12/05 02:46:28;;;;;;;31.93;24.25;;;;;;;0.47;85.63;98132.19;1829070;78;20868;-81
2020/12/05 02:48:57;;;;;;;35.75;24.18;;;;;;;0.45;85.75;98144.59;1828855;78;21790;-81
2020/12/05 02:51:24;;;;;;;30.92;22.35;;;;;;;0.44;85.76;98136.25;1828692;78;20963;-82
2020/12/05 02:53:51;;;;;;;29.85;21.87;;;;;;;0.44;85.69;98124.36;1828827;78;20904;-81
2020/12/05 02:56:20;;;;;;;33.98;23.45;;;;;;;0.41;85.50;98129.75;1828770;78;20892;-81
2020/12/05 02:58:47;;;;;;;35.52;23.90;;;;;;;0.38;85.40;98129.41;1828795;78;20971;-81
2020/12/05 03:01:14;;;;;;;30.97;23.30;;;;;;;0.37;85.40;98132.10;1828735;78;21276;-82
2020/12/05 03:03:43;;;;;;;32.67;23.47;;;;;;;0.34;85.38;98128.63;1828851;78;21007;-82
2020/12/05 03:06:10;;;;;;;32.20;22.45;;;;;;;0.33;85.47;98136.16;1823155;78;20928;-81
2020/12/05 03:08:38;;;;;;;29.65;23.18;;;;;;;0.32;85.54;98137.06;1806826;79;21315;-81
2020/12/05 03:11:07;;;;;;;33.55;22.70;;;;;;;0.31;85.56;98133.16;1806660;79;20925;-81
2020/12/05 03:13:35;;;;;;;33.20;23.70;;;;;;;0.30;85.64;98140.66;1806800;79;22254;-82
2020/12/05 03:16:02;;;;;;;30.75;21.07;;;;;;;0.28;85.60;98134.10;1806634;79;20928;-81
2020/12/05 03:18:31;;;;;;;30.75;22.02;;;;;;;0.27;85.66;98135.03;1806737;79;20905;-81
2020/12/05 03:20:58;;;;;;;29.10;21.95;;;;;;;0.28;85.66;98143.81;1806301;79;20909;-81
2020/12/05 03:23:26;;;;;;;27.67;23.73;;;;;;;0.26;85.64;98138.58;1806294;79;20976;-83
2020/12/05 03:25:56;;;;;;;30.68;22.60;;;;;;;0.25;85.65;98153.16;1807390;79;22684;-81
2020/12/05 03:28:25;;;;;;;30.82;22.58;;;;;;;0.24;85.57;98141.73;1808337;79;20960;-81
2020/12/05 03:30:53;;;;;;;29.20;22.87;;;;;;;0.21;85.47;98127.77;1808442;79;20933;-80
2020/12/05 03:33:22;;;;;;;35.08;23.22;;;;;;;0.21;85.42;98128.63;1808120;79;20917;-81
2020/12/05 03:35:49;;;;;;;35.20;23.42;;;;;;;0.18;85.39;98128.25;1806833;79;20924;-81
2020/12/05 03:38:17;;;;;;;29.35;22.15;;;;;;;0.17;85.44;98129.19;1806412;79;22389;-82
2020/12/05 03:40:45;;;;;;;28.52;22.42;;;;;;;0.15;85.61;98128.34;1806311;79;20988;-82
2020/12/05 03:43:13;;;;;;;34.60;25.02;;;;;;;0.14;85.68;98125.76;1806328;79;21465;-82
2020/12/05 03:45:40;;;;;;;34.90;24.67;;;;;;;0.13;85.85;98128.86;1806412;79;20905;-82
2020/12/05 03:48:12;;;;;;;37.30;23.85;;;;;;;0.15;85.89;98136.27;1807553;79;20869;-81
2020/12/05 03:50:39;;;;;;;30.12;23.57;;;;;;;0.15;85.92;98129.67;1807322;79;21196;-82
2020/12/05 03:53:07;;;;;;;34.63;24.55;;;;;;;0.17;85.87;98133.59;1806670;79;21404;-82
2020/12/05 03:55:35;;;;;;;35.20;25.85;;;;;;;0.17;85.91;98145.47;1806977;79;20917;-83
2020/12/05 03:58:03;;;;;;;34.50;24.65;;;;;;;0.15;85.91;98138.06;1807436;79;20897;-81
2020/12/05 04:00:30;;;;;;;32.38;25.32;;;;;;;0.14;85.78;98138.53;1807683;79;20870;-83
2020/12/05 04:02:59;;;;;;;29.65;22.95;;;;;;;0.13;85.87;98154.42;1807611;79;21795;-83
2020/12/05 04:05:26;;;;;;;31.27;23.30;;;;;;;0.14;85.97;98158.77;1807217;79;21421;-82
2020/12/05 04:07:53;;;;;;;32.15;22.52;;;;;;;0.14;86.05;98164.05;1806050;78;21047;-83
2020/12/05 04:10:21;;;;;;;27.80;21.57;;;;;;;0.14;86.14;98158.77;1806029;79;21479;-82
2020/12/05 04:12:50;;;;;;;31.95;21.85;;;;;;;0.13;86.17;98166.30;1806211;79;20901;-82
2020/12/05 04:15:18;;;;;;;30.17;20.65;;;;;;;0.13;86.25;98155.74;1806299;79;22500;-82
2020/12/05 04:17:46;;;;;;;24.77;21.17;;;;;;;0.13;86.21;98160.56;1805941;79;21000;-81
2020/12/05 04:20:13;;;;;;;29.87;21.12;;;;;;;0.15;86.17;98163.16;1806033;79;20964;-82
2020/12/05 04:22:40;;;;;;;25.30;20.75;;;;;;;0.14;86.18;98164.94;1805719;79;20914;-82
2020/12/05 04:25:09;;;;;;;28.90;21.12;;;;;;;0.13;86.23;98160.56;1805749;79;20929;-82
2020/12/05 04:27:36;;;;;;;28.87;20.57;;;;;;;0.15;86.25;98167.11;1805862;79;21811;-82
2020/12/05 04:30:04;;;;;;;27.32;20.60;;;;;;;0.14;86.24;98165.38;1805701;79;21007;-82
2020/12/05 04:32:32;;;;;;;29.02;21.80;;;;;;;0.14;86.22;98177.26;1805769;79;20904;-83
2020/12/05 04:34:59;;;;;;;24.43;21.42;;;;;;;0.14;86.25;98170.66;1805705;79;20900;-82
2020/12/05 04:37:27;;;;;;;30.62;21.37;;;;;;;0.13;86.38;98171.13;1805942;79;20991;-82
2020/12/05 04:39:55;;;;;;;29.87;21.77;;;;;;;0.13;86.47;98175.55;1805897;79;22246;-82
2020/12/05 04:42:23;;;;;;;26.40;20.27;;;;;;;0.14;86.42;98169.34;1805739;79;21458;-83
2020/12/05 04:44:50;;;;;;;27.30;20.40;;;;;;;0.12;86.35;98169.85;1805785;79;20925;-82
2020/12/05 04:47:18;;;;;;;27.60;20.70;;;;;;;0.13;86.35;98170.27;1805646;79;21335;-83
2020/12/05 04:49:45;;;;;;;24.32;19.60;;;;;;;0.13;86.41;98184.80;1805740;79;20948;-83
2020/12/05 04:52:25;;;;;;;29.12;19.45;;;;;;;0.13;86.42;98186.11;1805726;79;21731;-82
2020/12/05 04:54:55;;;;;;;28.42;20.48;;;;;;;0.11;86.41;98198.48;1805704;79;20877;-83
2020/12/05 04:57:25;;;;;;;30.02;21.40;;;;;;;0.11;86.35;98192.77;1807411;79;20921;-83
2020/12/05 04:59:53;;;;;;;33.00;24.60;;;;;;;0.10;86.22;98183.56;1805792;79;20916;-83
2020/12/05 05:02:27;;;;;;;31.55;25.70;;;;;;;0.10;86.24;98191.48;1805776;79;20900;-83
2020/12/05 05:04:54;;;;;;;30.57;23.25;;;;;;;0.09;86.30;98184.47;1805792;79;24987;-82
2020/12/05 05:07:22;;;;;;;26.45;20.80;;;;;;;0.09;86.33;98189.75;1810130;79;20948;-81
2020/12/05 05:10:01;;;;;;;27.10;21.15;;;;;;;0.08;86.37;98195.50;1814944;79;20905;-81
2020/12/05 05:12:31;;;;;;;23.18;17.20;;;;;;;0.10;86.44;98194.13;1813645;79;20968;-81
2020/12/05 05:15:00;;;;;;;25.82;19.80;;;;;;;0.10;86.45;98182.25;1814934;79;21533;-82
2020/12/05 05:17:28;;;;;;;28.42;21.23;;;;;;;0.11;86.52;98196.73;1814978;79;22034;-82
2020/12/05 05:19:56;;;;;;;28.07;19.90;;;;;;;0.12;86.53;98205.50;1814842;79;21417;-82
2020/12/05 05:22:25;;;;;;;28.02;21.52;;;;;;;0.13;86.61;98186.11;1814804;79;21003;-81
2020/12/05 05:25:05;;;;;;;27.73;20.15;;;;;;;0.14;86.64;98198.39;1814790;79;21334;-81
2020/12/05 05:27:32;;;;;;;27.62;20.02;;;;;;;0.15;86.67;98194.84;1814977;79;20956;-82
2020/12/05 05:30:13;;;;;;;26.17;19.15;;;;;;;0.16;86.56;98200.55;1814857;79;21183;-82
2020/12/05 05:32:49;;;;;;;23.65;18.65;;;;;;;0.17;86.55;98200.94;1814890;79;21358;-82
2020/12/05 05:35:16;;;;;;;23.30;18.57;;;;;;;0.19;86.59;98200.45;1814848;79;21387;-83
2020/12/05 05:37:44;;;;;;;22.55;19.02;;;;;;;0.20;86.63;98198.20;1814939;78;20992;-84
2020/12/05 05:40:13;;;;;;;23.92;18.90;;;;;;;0.21;86.63;98207.87;1815053;79;20917;-83
2020/12/05 05:42:42;;;;;;;21.65;16.50;;;;;;;0.22;86.58;98205.65;1815047;79;22275;-83
2020/12/05 05:45:26;;;;;;;25.45;19.37;;;;;;;0.24;86.54;98209.09;1814954;78;21481;-83
2020/12/05 05:48:06;;;;;;;25.48;18.80;;;;;;;0.26;86.52;98209.91;1814991;79;21002;-83
2020/12/05 05:50:33;;;;;;;24.30;18.98;;;;;;;0.26;86.51;98208.58;1814584;79;21386;-81
2020/12/05 05:53:09;;;;;;;22.77;18.20;;;;;;;0.27;86.53;98211.64;1815142;79;21330;-85
2020/12/05 05:55:47;;;;;;;23.98;18.52;;;;;;;0.29;86.45;98207.17;1812262;79;21371;-82
2020/12/05 05:58:21;;;;;;;25.37;19.77;;;;;;;0.30;86.44;98214.20;1814952;79;20972;-83
2020/12/05 06:00:50;;;;;;;26.85;19.45;;;;;;;0.31;86.54;98213.26;1814990;79;20912;-81
2020/12/05 06:03:28;;;;;;;23.02;18.48;;;;;;;0.34;86.58;98225.05;1815068;79;20920;-82
2020/12/05 06:05:57;;;;;;;23.42;17.55;;;;;;;0.37;86.58;98225.89;1815133;79;20995;-82
2020/12/05 06:08:29;;;;;;;23.32;19.27;;;;;;;0.40;86.43;98224.02;1807860;78;21320;-83
2020/12/05 06:11:11;;;;;;;27.73;17.85;;;;;;;0.41;86.27;98224.44;1805881;79;21000;-82
2020/12/05 06:13:40;;;;;;;23.70;18.73;;;;;;;0.42;86.32;98226.61;1797570;79;20909;-83
2020/12/05 06:16:07;;;;;;;25.57;18.10;;;;;;;0.44;86.33;98233.59;1776113;79;20937;-82
2020/12/05 06:18:35;;;;;;;25.70;18.80;;;;;;;0.48;86.42;98229.06;1805890;79;20985;-83
2020/12/05 06:21:04;;;;;;;23.70;18.23;;;;;;;0.52;86.34;98233.32;1805820;79;21647;-83
2020/12/05 06:23:43;;;;;;;23.18;18.12;;;;;;;0.55;86.25;98243.80;1805803;79;21447;-83
2020/12/05 06:26:16;;;;;;;25.72;19.02;;;;;;;0.59;86.19;98238.83;1805930;79;21373;-83
2020/12/05 06:28:44;;;;;;;24.72;17.25;;;;;;;0.61;85.94;98246.25;1782217;79;21035;-81
2020/12/05 06:31:16;;;;;;;22.47;17.53;;;;;;;0.63;85.84;98251.05;1806149;79;20956;-82
2020/12/05 06:33:45;;;;;;;20.97;17.17;;;;;;;0.66;85.75;98252.28;1805846;79;21208;-83
2020/12/05 06:36:35;;;;;;;22.02;17.25;;;;;;;0.68;85.61;98254.41;1805761;79;21028;-84
2020/12/05 06:39:13;;;;;;;18.27;15.13;;;;;;;0.71;85.55;98254.78;1805876;79;20924;-84
2020/12/05 06:41:49;;;;;;;19.45;17.40;;;;;;;0.72;85.52;98253.38;1805806;79;20904;-84
2020/12/05 06:44:23;;;;;;;25.68;19.75;;;;;;;0.76;85.46;98249.31;1805837;79;20987;-83
2020/12/05 06:46:55;;;;;;;31.85;20.80;;;;;;;0.78;85.40;98255.44;1805829;79;21354;-85
2020/12/05 06:49:42;;;;;;;31.68;21.82;;;;;;;0.84;85.41;98256.56;1805744;79;21484;-84
2020/12/05 06:52:28;;;;;;;25.50;19.90;;;;;;;0.89;85.40;98257.27;1805851;79;20912;-84
2020/12/05 06:55:05;;;;;;;24.57;18.48;;;;;;;0.95;85.30;98254.43;1805483;79;20944;-83
2020/12/05 06:57:36;;;;;;;20.85;16.93;;;;;;;1.01;85.13;98265.25;1805932;79;21027;-85
2020/12/05 07:00:21;;;;;;;24.40;17.42;;;;;;;1.06;84.95;98266.84;1805909;79;21274;-83
2020/12/05 07:02:54;;;;;;;21.15;17.00;;;;;;;1.11;84.75;98261.86;1805811;79;20881;-83
2020/12/05 07:05:28;;;;;;;17.82;14.53;;;;;;;1.14;84.55;98272.34;1805838;79;20925;-83
2020/12/05 07:07:58;;;;;;;24.37;18.15;;;;;;;1.19;84.34;98277.02;1805730;77;20992;-83
2020/12/05 07:10:54;;;;;;;22.30;16.52;;;;;;;1.23;84.15;98270.69;1805806;79;20983;-83
2020/12/05 07:13:45;;;;;;;22.25;17.27;;;;;;;1.26;84.01;98274.55;1805684;79;21366;-83
2020/12/05 07:16:28;;;;;;;25.95;19.52;;;;;;;1.28;83.86;98278.03;1805796;79;21453;-83
2020/12/05 07:19:01;;;;;;;30.75;21.30;;;;;;;1.32;83.71;98282.29;1806082;79;27057;-83
2020/12/05 07:21:40;;;;;;;20.70;18.32;;;;;;;1.36;83.53;98280.42;1805757;79;20972;-84
2020/12/05 07:24:08;;;;;;;28.30;20.92;;;;;;;1.38;83.35;98287.38;1782061;79;20905;-82
2020/12/05 07:26:36;;;;;;;29.77;20.68;;;;;;;1.41;83.31;98297.86;1805748;79;21425;-85
2020/12/05 07:29:03;;;;;;;26.48;19.20;;;;;;;1.43;83.15;98294.72;1726377;79;20937;-83
2020/12/05 07:31:32;;;;;;;23.85;19.05;;;;;;;1.46;82.90;98294.20;1805783;79;20885;-84
2020/12/05 07:33:59;;;;;;;20.00;16.62;;;;;;;1.48;82.82;98296.33;1805792;79;20865;-84
2020/12/05 07:36:26;;;;;;;17.23;15.20;;;;;;;1.52;82.65;98297.97;1805759;79;20956;-84
2020/12/05 07:38:55;;;;;;;25.37;18.27;;;;;;;1.54;82.62;98296.13;1805882;79;22324;-82
2020/12/05 07:41:23;;;;;;;23.10;17.05;;;;;;;1.57;82.49;98296.02;1805596;79;20901;-84
2020/12/05 07:43:56;;;;;;;24.92;17.77;;;;;;;1.61;82.35;98301.63;1805797;79;21039;-85
2020/12/05 07:46:25;;;;;;;23.32;16.40;;;;;;;1.65;82.25;98299.25;1805809;79;21410;-84
2020/12/05 07:48:54;;;;;;;20.30;16.32;;;;;;;1.70;82.17;98307.04;1780147;79;21039;-84
2020/12/05 07:51:21;;;;;;;24.50;16.62;;;;;;;1.74;82.03;98300.26;1805696;79;21785;-82
2020/12/05 07:53:51;;;;;;;33.90;18.35;;;;;;;1.79;81.93;98306.25;1805713;79;21513;-80
2020/12/05 07:56:21;;;;;;;27.17;19.02;;;;;;;1.83;81.80;98300.41;1805887;79;21494;-76
2020/12/05 07:58:56;;;;;;;21.27;16.95;;;;;;;1.90;81.70;98303.69;1805102;79;21043;-79
2020/12/05 08:02:00;;;;;;;19.42;16.35;;;;;;;1.95;81.47;98299.09;1805771;79;21138;-84
2020/12/05 08:04:42;;;;;;;21.40;15.72;;;;;;;2.02;81.29;98296.63;1805843;79;21364;-68
2020/12/05 08:07:21;;;;;;;19.40;16.50;;;;;;;2.10;81.14;98301.19;1805704;79;21379;-82
2020/12/05 08:09:50;;;;;;;21.68;18.10;;;;;;;2.15;80.85;98303.20;1805838;79;21316;-83
2020/12/05 08:12:24;;;;;;;33.18;23.25;;;;;;;2.22;80.62;98306.95;1805816;79;21403;-84
2020/12/05 08:14:51;;;;;;;21.85;17.05;;;;;;;2.27;80.39;98317.80;1803302;79;20932;-82
2020/12/05 08:17:20;;;;;;;42.20;32.98;;;;;;;2.34;80.00;98317.09;1805863;79;22750;-84
2020/12/05 08:19:48;;;;;;;25.32;18.52;;;;;;;2.40;79.95;98321.28;1805706;79;21007;-83
2020/12/05 08:22:15;;;;;;;24.50;18.07;;;;;;;2.45;79.64;98314.91;1805753;79;20968;-84
2020/12/05 08:24:50;;;;;;;25.20;17.82;;;;;;;2.50;79.31;98310.28;1805657;79;21441;-82
2020/12/05 08:27:21;;;;;;;23.42;19.10;;;;;;;2.56;78.74;98309.67;1805829;79;21004;-82
2020/12/05 08:29:48;;;;;;;27.67;19.85;;;;;;;2.63;78.86;98315.13;1805790;79;21185;-82
2020/12/05 08:32:24;;;;;;;22.00;18.10;;;;;;;2.67;78.67;98316.74;1805655;79;20999;-82
2020/12/05 08:35:08;;;;;;;18.62;15.53;;;;;;;2.73;78.61;98321.81;1805762;79;21352;-84
2020/12/05 08:37:45;;;;;;;20.45;14.83;;;;;;;2.78;78.28;98322.48;1805811;79;20972;-82
2020/12/05 08:40:17;;;;;;;17.65;15.80;;;;;;;2.85;78.04;98320.45;1805851;78;21457;-83
2020/12/05 08:42:47;;;;;;;19.77;15.28;;;;;;;2.90;77.73;98323.78;1805947;79;22274;-82
2020/12/05 08:45:17;;;;;;;20.45;16.02;;;;;;;2.95;77.75;98327.58;1805823;79;20995;-83
2020/12/05 08:47:46;;;;;;;17.05;13.05;;;;;;;2.98;77.37;98334.09;1805690;79;20977;-83
2020/12/05 08:50:35;;;;;;;18.73;14.03;;;;;;;3.04;77.39;98337.83;1805254;79;21047;-85
2020/12/05 08:53:03;;;;;;;17.05;14.65;;;;;;;3.08;77.50;98339.45;1805628;79;20896;-82
2020/12/05 08:55:32;;;;;;;19.95;16.45;;;;;;;3.15;77.65;98343.56;1805845;79;22653;-83
2020/12/05 08:58:01;;;;;;;19.05;15.63;;;;;;;3.21;77.77;98342.00;1805642;79;20885;-83
2020/12/05 09:00:32;;;;;;;18.90;16.07;;;;;;;3.24;77.75;98343.20;1805681;79;20908;-83
2020/12/05 09:02:59;;;;;;;19.65;16.30;;;;;;;3.32;77.87;98350.00;1805746;79;20930;-82
2020/12/05 09:05:27;;;;;;;18.07;14.60;;;;;;;3.35;77.88;98346.75;1805715;79;20984;-83
2020/12/05 09:07:57;;;;;;;18.00;16.02;;;;;;;3.41;77.86;98349.63;1807250;79;22360;-83
2020/12/05 09:10:27;;;;;;;18.25;15.53;;;;;;;3.45;77.83;98352.54;1814788;79;20975;-84
2020/12/05 09:13:06;;;;;;;17.02;14.43;;;;;;;3.50;77.71;98349.70;1814948;79;21015;-84
2020/12/05 09:15:37;;;;;;;16.45;13.53;;;;;;;3.55;77.71;98348.59;1814850;79;20999;-84
2020/12/05 09:18:07;;;;;;;16.67;14.80;;;;;;;3.62;77.62;98349.19;1814970;79;21366;-83
2020/12/05 09:20:40;;;;;;;17.00;14.70;;;;;;;3.69;77.65;98344.48;1814958;79;21595;-83
2020/12/05 09:23:12;;;;;;;18.05;15.30;;;;;;;3.74;77.63;98337.20;1814932;78;21480;-83
2020/12/05 09:25:41;;;;;;;16.07;14.38;;;;;;;3.77;77.61;98331.75;1784143;79;21326;-83
2020/12/05 09:28:13;;;;;;;16.35;14.55;;;;;;;3.84;77.44;98337.19;1814813;79;20880;-83
2020/12/05 09:30:40;;;;;;;16.17;14.50;;;;;;;3.87;77.43;98334.39;1814888;79;20877;-82
2020/12/05 09:33:15;;;;;;;16.55;13.95;;;;;;;3.92;77.44;98332.40;1815014;79;21573;-84
2020/12/05 09:35:45;;;;;;;18.35;14.80;;;;;;;3.95;77.40;98340.23;1814805;79;21557;-83
2020/12/05 09:38:12;;;;;;;18.87;16.05;;;;;;;4.00;77.53;98329.41;1814941;79;20912;-85
2020/12/05 09:40:40;;;;;;;16.10;14.10;;;;;;;4.05;77.32;98342.05;1814744;79;20908;-82
2020/12/05 09:43:07;;;;;;;16.85;15.05;;;;;;;4.11;77.38;98335.59;1814971;79;20991;-82
2020/12/05 09:45:35;;;;;;;14.38;12.98;;;;;;;4.17;77.29;98332.66;1814803;79;21227;-84
2020/12/05 09:48:04;;;;;;;17.65;15.10;;;;;;;4.24;77.32;98331.47;1814786;79;20943;-84
2020/12/05 09:50:31;;;;;;;16.97;14.87;;;;;;;4.29;77.23;98332.59;1814820;79;20908;-85
2020/12/05 09:52:59;;;;;;;15.72;14.10;;;;;;;4.33;77.04;98328.36;1814794;79;20880;-82
2020/12/05 09:55:30;;;;;;;15.20;13.62;;;;;;;4.37;77.08;98318.48;1814863;79;21017;-82
2020/12/05 09:57:58;;;;;;;15.13;13.53;;;;;;;4.44;76.92;98326.55;1814934;79;22287;-83
2020/12/05 10:00:26;;;;;;;18.40;14.78;;;;;;;4.47;76.87;98324.23;1814718;79;20991;-84
2020/12/05 10:02:53;;;;;;;17.42;15.05;;;;;;;4.53;76.87;98329.27;1814963;79;20932;-81
2020/12/05 10:05:21;;;;;;;16.57;13.90;;;;;;;4.58;76.88;98325.92;1814760;79;20904;-83
2020/12/05 10:07:49;;;;;;;16.70;14.93;;;;;;;4.62;76.85;98326.19;1814704;79;20916;-84
2020/12/05 10:10:17;;;;;;;17.10;14.05;;;;;;;4.66;76.90;98314.45;1805736;79;21364;-81
2020/12/05 10:12:50;;;;;;;16.15;14.13;;;;;;;4.72;76.92;98317.78;1805778;79;20972;-83
2020/12/05 10:15:19;;;;;;;14.50;13.00;;;;;;;4.77;77.01;98322.41;1805854;79;23888;-82
2020/12/05 10:17:46;;;;;;;20.05;17.07;;;;;;;4.81;76.98;98324.86;1805722;79;20973;-82
2020/12/05 10:20:14;;;;;;;16.42;14.73;;;;;;;4.86;76.80;98333.96;1805747;79;20992;-81
2020/12/05 10:22:42;;;;;;;17.15;15.35;;;;;;;4.94;76.81;98334.45;1805780;79;21424;-83
2020/12/05 10:25:11;;;;;;;17.00;13.62;;;;;;;4.99;76.74;98331.09;1805790;79;20945;-80
2020/12/05 10:27:39;;;;;;;19.92;17.17;;;;;;;5.03;76.66;98334.02;1805840;79;20948;-83
2020/12/05 10:30:09;;;;;;;20.48;16.87;;;;;;;5.10;76.58;98319.09;1805935;79;21430;-82
2020/12/05 10:32:37;;;;;;;19.07;16.55;;;;;;;5.18;76.43;98327.55;1805954;79;21390;-83
2020/12/05 10:35:06;;;;;;;19.85;17.48;;;;;;;5.22;76.42;98325.16;1805995;79;21791;-82
2020/12/05 10:37:34;;;;;;;17.87;15.98;;;;;;;5.28;76.14;98326.63;1805918;79;21027;-83
2020/12/05 10:40:01;;;;;;;18.32;16.37;;;;;;;5.31;76.11;98326.00;1805914;79;20912;-83
2020/12/05 10:42:29;;;;;;;23.50;18.25;;;;;;;5.35;76.17;98327.59;1806026;79;20920;-82
2020/12/05 10:44:58;;;;;;;18.17;16.10;;;;;;;5.38;76.33;98331.44;1806021;79;21446;-83
2020/12/05 10:47:26;;;;;;;16.82;15.08;;;;;;;5.41;76.29;98327.29;1805855;79;21358;-82
2020/12/05 10:49:53;;;;;;;20.52;16.75;;;;;;;5.47;76.15;98321.26;1805917;79;21454;-82
2020/12/05 10:52:20;;;;;;;18.50;16.10;;;;;;;5.52;75.83;98319.22;1805918;79;20940;-83
2020/12/05 10:54:49;;;;;;;20.77;17.48;;;;;;;5.57;75.88;98319.88;1805979;79;20924;-83
2020/12/05 10:57:19;;;;;;;19.90;17.27;;;;;;;5.61;75.58;98320.09;1806062;79;21449;-84
2020/12/05 10:59:54;;;;;;;20.88;17.57;;;;;;;5.63;75.35;98320.90;1805905;79;21441;-82
2020/12/05 11:02:20;;;;;;;23.90;19.95;;;;;;;5.68;75.30;98319.34;1805360;79;21032;-81
2020/12/05 11:04:48;;;;;;;21.50;17.67;;;;;;;5.72;75.38;98320.88;1805894;79;20976;-83
2020/12/05 11:07:15;;;;;;;21.00;17.75;;;;;;;5.76;75.18;98334.45;1805795;79;20992;-82
2020/12/05 11:09:44;;;;;;;24.85;20.80;;;;;;;5.79;75.28;98328.48;1811834;77;21460;-81
2020/12/05 11:12:13;;;;;;;34.75;23.27;;;;;;;5.83;75.35;98327.00;1815001;79;21172;-80
2020/12/05 11:14:40;;;;;;;21.12;18.02;;;;;;;5.86;75.21;98329.52;1815041;79;20921;-82
2020/12/05 11:17:08;;;;;;;21.50;18.98;;;;;;;5.89;74.98;98321.36;1815052;79;20975;-81
2020/12/05 11:19:35;;;;;;;24.12;18.77;;;;;;;5.91;75.05;98319.02;1815073;79;20948;-83
2020/12/05 11:22:03;;;;;;;20.25;17.55;;;;;;;5.95;74.94;98319.72;1815051;79;20901;-82
2020/12/05 11:24:31;;;;;;;20.23;17.82;;;;;;;5.98;74.95;98324.92;1815045;79;22367;-83
2020/12/05 11:26:59;;;;;;;21.07;18.70;;;;;;;6.01;74.97;98326.09;1814879;78;20947;-83
2020/12/05 11:29:27;;;;;;;20.20;17.05;;;;;;;6.05;74.99;98328.12;1814948;78;20960;-82
2020/12/05 11:31:55;;;;;;;21.20;17.82;;;;;;;6.08;75.10;98334.14;1814896;79;20991;-82
2020/12/05 11:34:24;;;;;;;19.82;16.35;;;;;;;6.12;75.28;98333.06;1814954;79;21003;-82
2020/12/05 11:36:52;;;;;;;20.08;18.00;;;;;;;6.15;75.15;98330.71;1814932;79;21349;-82
2020/12/05 11:39:20;;;;;;;19.98;17.87;;;;;;;6.20;75.40;98323.80;1814874;79;20956;-82